sensor_id;sensor_type;location;lat;lon;timestamp;temperature;humidity
25154;DHT22;47555;51.038;6.280;2023-04-12T00:01:36;9.70;80.30
25154;DHT22;47555;51.038;6.280;2023-04-12T00:04:01;9.60;79.50
25154;DHT22;47555;51.038;6.280;2023-04-12T00:06:29;9.60;80.30
25154;DHT22;47555;51.038;6.280;2023-04-12T00:09:00;9.60;80.60
25154;DHT22;47555;51.038;6.280;2023-04-12T00:11:27;9.60;80.60
25154;DHT22;47555;51.038;6.280;2023-04-12T00:13:53;9.50;80.60
25154;DHT22;47555;51.038;6.280;2023-04-12T00:16:19;9.50;79.90
25154;DHT22;47555;51.038;6.280;2023-04-12T00:18:45;9.50;79.00
25154;DHT22;47555;51.038;6.280;2023-04-12T00:21:11;9.50;79.80
25154;DHT22;47555;51.038;6.280;2023-04-12T00:23:36;9.40;80.50
25154;DHT22;47555;51.038;6.280;2023-04-12T00:26:03;9.40;80.40
25154;DHT22;47555;51.038;6.280;2023-04-12T00:28:29;9.30;80.10
25154;DHT22;47555;51.038;6.280;2023-04-12T00:30:55;9.30;80.60
25154;DHT22;47555;51.038;6.280;2023-04-12T00:33:20;9.30;82.40
25154;DHT22;47555;51.038;6.280;2023-04-12T00:35:46;9.30;82.30
25154;DHT22;47555;51.038;6.280;2023-04-12T00:38:11;9.20;82.50
25154;DHT22;47555;51.038;6.280;2023-04-12T00:40:41;9.20;83.30
25154;DHT22;47555;51.038;6.280;2023-04-12T00:43:08;9.20;84.90
25154;DHT22;47555;51.038;6.280;2023-04-12T00:45:35;9.10;85.40
25154;DHT22;47555;51.038;6.280;2023-04-12T00:48:02;9.10;86.00
25154;DHT22;47555;51.038;6.280;2023-04-12T00:50:28;9.10;86.60
25154;DHT22;47555;51.038;6.280;2023-04-12T00:52:54;9.10;85.20
25154;DHT22;47555;51.038;6.280;2023-04-12T00:55:20;9.00;85.80
25154;DHT22;47555;51.038;6.280;2023-04-12T00:57:45;9.00;86.50
25154;DHT22;47555;51.038;6.280;2023-04-12T01:00:11;9.00;87.20
25154;DHT22;47555;51.038;6.280;2023-04-12T01:02:38;8.90;86.00
25154;DHT22;47555;51.038;6.280;2023-04-12T01:05:06;9.00;86.30
25154;DHT22;47555;51.038;6.280;2023-04-12T01:07:54;9.00;86.00
25154;DHT22;47555;51.038;6.280;2023-04-12T01:13:44;9.00;86.70
25154;DHT22;47555;51.038;6.280;2023-04-12T01:18:48;8.90;86.60
25154;DHT22;47555;51.038;6.280;2023-04-12T01:21:19;8.90;86.10
25154;DHT22;47555;51.038;6.280;2023-04-12T01:27:00;8.90;87.00
25154;DHT22;47555;51.038;6.280;2023-04-12T01:29:28;8.90;86.50
25154;DHT22;47555;51.038;6.280;2023-04-12T01:31:59;8.90;86.50
25154;DHT22;47555;51.038;6.280;2023-04-12T01:34:28;8.90;87.10
25154;DHT22;47555;51.038;6.280;2023-04-12T01:36:54;8.90;87.00
25154;DHT22;47555;51.038;6.280;2023-04-12T01:39:21;8.90;86.80
25154;DHT22;47555;51.038;6.280;2023-04-12T01:41:47;8.90;86.40
25154;DHT22;47555;51.038;6.280;2023-04-12T01:44:17;8.90;87.20
25154;DHT22;47555;51.038;6.280;2023-04-12T01:46:44;8.90;87.10
25154;DHT22;47555;51.038;6.280;2023-04-12T01:49:12;8.90;87.20
25154;DHT22;47555;51.038;6.280;2023-04-12T01:51:57;8.90;87.70
25154;DHT22;47555;51.038;6.280;2023-04-12T01:54:32;8.90;87.00
25154;DHT22;47555;51.038;6.280;2023-04-12T01:57:03;8.90;86.80
25154;DHT22;47555;51.038;6.280;2023-04-12T01:59:38;8.90;87.10
25154;DHT22;47555;51.038;6.280;2023-04-12T02:02:04;8.90;86.60
25154;DHT22;47555;51.038;6.280;2023-04-12T02:04:30;8.90;86.30
25154;DHT22;47555;51.038;6.280;2023-04-12T02:06:56;9.00;86.40
25154;DHT22;47555;51.038;6.280;2023-04-12T02:09:25;9.00;86.60
25154;DHT22;47555;51.038;6.280;2023-04-12T02:11:50;9.00;86.00
25154;DHT22;47555;51.038;6.280;2023-04-12T02:14:16;8.90;86.70
25154;DHT22;47555;51.038;6.280;2023-04-12T02:16:41;8.90;87.60
25154;DHT22;47555;51.038;6.280;2023-04-12T02:19:09;8.90;88.00
25154;DHT22;47555;51.038;6.280;2023-04-12T02:21:45;9.00;88.10
25154;DHT22;47555;51.038;6.280;2023-04-12T02:24:11;8.90;88.40
25154;DHT22;47555;51.038;6.280;2023-04-12T02:26:37;9.00;87.80
25154;DHT22;47555;51.038;6.280;2023-04-12T02:29:04;9.00;87.00
25154;DHT22;47555;51.038;6.280;2023-04-12T02:31:33;9.00;88.20
25154;DHT22;47555;51.038;6.280;2023-04-12T02:34:00;9.00;88.00
25154;DHT22;47555;51.038;6.280;2023-04-12T02:36:25;8.90;88.40
25154;DHT22;47555;51.038;6.280;2023-04-12T02:38:51;9.00;89.00
25154;DHT22;47555;51.038;6.280;2023-04-12T02:41:17;8.90;90.40
25154;DHT22;47555;51.038;6.280;2023-04-12T02:43:43;8.90;88.90
25154;DHT22;47555;51.038;6.280;2023-04-12T02:46:08;9.00;89.20
25154;DHT22;47555;51.038;6.280;2023-04-12T02:48:34;9.00;89.00
25154;DHT22;47555;51.038;6.280;2023-04-12T02:51:00;8.90;89.20
25154;DHT22;47555;51.038;6.280;2023-04-12T02:53:25;8.90;89.30
25154;DHT22;47555;51.038;6.280;2023-04-12T02:55:51;9.00;89.70
25154;DHT22;47555;51.038;6.280;2023-04-12T02:58:16;9.00;89.90
25154;DHT22;47555;51.038;6.280;2023-04-12T03:00:44;8.90;90.10
25154;DHT22;47555;51.038;6.280;2023-04-12T03:03:10;8.90;90.10
25154;DHT22;47555;51.038;6.280;2023-04-12T03:05:36;8.90;90.10
25154;DHT22;47555;51.038;6.280;2023-04-12T03:08:02;8.90;90.40
25154;DHT22;47555;51.038;6.280;2023-04-12T03:10:27;8.90;90.50
25154;DHT22;47555;51.038;6.280;2023-04-12T03:12:53;8.90;90.20
25154;DHT22;47555;51.038;6.280;2023-04-12T03:15:19;8.80;90.60
25154;DHT22;47555;51.038;6.280;2023-04-12T03:17:47;8.90;90.50
25154;DHT22;47555;51.038;6.280;2023-04-12T03:20:13;8.90;91.00
25154;DHT22;47555;51.038;6.280;2023-04-12T03:22:39;8.90;91.10
25154;DHT22;47555;51.038;6.280;2023-04-12T03:25:05;9.00;89.90
25154;DHT22;47555;51.038;6.280;2023-04-12T03:27:31;8.90;90.00
25154;DHT22;47555;51.038;6.280;2023-04-12T03:29:56;8.90;89.60
25154;DHT22;47555;51.038;6.280;2023-04-12T03:32:23;9.00;88.40
25154;DHT22;47555;51.038;6.280;2023-04-12T03:34:49;9.00;88.70
25154;DHT22;47555;51.038;6.280;2023-04-12T03:37:15;9.00;88.80
25154;DHT22;47555;51.038;6.280;2023-04-12T03:39:40;9.10;89.10
25154;DHT22;47555;51.038;6.280;2023-04-12T03:42:09;9.00;89.40
25154;DHT22;47555;51.038;6.280;2023-04-12T03:44:34;9.00;89.60
25154;DHT22;47555;51.038;6.280;2023-04-12T03:47:00;9.00;90.00
25154;DHT22;47555;51.038;6.280;2023-04-12T03:49:26;8.90;90.80
25154;DHT22;47555;51.038;6.280;2023-04-12T03:51:52;8.90;91.20
25154;DHT22;47555;51.038;6.280;2023-04-12T03:54:17;8.90;91.30
25154;DHT22;47555;51.038;6.280;2023-04-12T03:56:43;8.90;91.90
25154;DHT22;47555;51.038;6.280;2023-04-12T03:59:08;8.90;92.90
25154;DHT22;47555;51.038;6.280;2023-04-12T04:01:34;8.80;94.30
25154;DHT22;47555;51.038;6.280;2023-04-12T04:04:01;8.80;94.80
25154;DHT22;47555;51.038;6.280;2023-04-12T04:06:27;8.80;96.10
25154;DHT22;47555;51.038;6.280;2023-04-12T04:08:55;8.70;97.40
25154;DHT22;47555;51.038;6.280;2023-04-12T04:11:22;8.60;98.30
25154;DHT22;47555;51.038;6.280;2023-04-12T04:13:48;8.60;99.10
25154;DHT22;47555;51.038;6.280;2023-04-12T04:16:14;8.60;99.90
25154;DHT22;47555;51.038;6.280;2023-04-12T04:18:39;8.50;99.90
25154;DHT22;47555;51.038;6.280;2023-04-12T04:21:05;8.50;99.90
25154;DHT22;47555;51.038;6.280;2023-04-12T04:23:32;8.40;99.90
25154;DHT22;47555;51.038;6.280;2023-04-12T04:26:04;8.40;99.90
25154;DHT22;47555;51.038;6.280;2023-04-12T04:28:35;8.40;99.90
25154;DHT22;47555;51.038;6.280;2023-04-12T04:31:01;8.30;99.90
25154;DHT22;47555;51.038;6.280;2023-04-12T04:33:31;8.30;99.90
25154;DHT22;47555;51.038;6.280;2023-04-12T04:35:57;8.20;99.90
25154;DHT22;47555;51.038;6.280;2023-04-12T04:38:23;8.20;99.90
25154;DHT22;47555;51.038;6.280;2023-04-12T04:40:50;8.20;99.90
25154;DHT22;47555;51.038;6.280;2023-04-12T04:43:20;8.20;99.90
25154;DHT22;47555;51.038;6.280;2023-04-12T04:45:46;8.10;99.90
25154;DHT22;47555;51.038;6.280;2023-04-12T04:48:15;8.10;99.90
25154;DHT22;47555;51.038;6.280;2023-04-12T04:50:41;8.10;99.90
25154;DHT22;47555;51.038;6.280;2023-04-12T04:53:06;8.00;99.90
25154;DHT22;47555;51.038;6.280;2023-04-12T04:55:32;8.00;99.90
25154;DHT22;47555;51.038;6.280;2023-04-12T04:57:57;8.00;99.90
25154;DHT22;47555;51.038;6.280;2023-04-12T05:00:23;8.00;99.90
25154;DHT22;47555;51.038;6.280;2023-04-12T05:02:50;7.90;99.90
25154;DHT22;47555;51.038;6.280;2023-04-12T05:05:16;7.90;99.90
25154;DHT22;47555;51.038;6.280;2023-04-12T05:07:42;7.90;99.90
25154;DHT22;47555;51.038;6.280;2023-04-12T05:10:09;7.90;99.90
25154;DHT22;47555;51.038;6.280;2023-04-12T05:12:35;7.90;99.90
25154;DHT22;47555;51.038;6.280;2023-04-12T05:15:02;7.90;99.90
25154;DHT22;47555;51.038;6.280;2023-04-12T05:17:28;7.90;99.90
25154;DHT22;47555;51.038;6.280;2023-04-12T05:19:54;7.90;99.90
25154;DHT22;47555;51.038;6.280;2023-04-12T05:22:20;7.90;99.90
25154;DHT22;47555;51.038;6.280;2023-04-12T05:24:47;7.90;99.90
25154;DHT22;47555;51.038;6.280;2023-04-12T05:27:13;7.90;99.90
25154;DHT22;47555;51.038;6.280;2023-04-12T05:29:38;7.90;99.90
25154;DHT22;47555;51.038;6.280;2023-04-12T05:32:04;7.90;99.90
25154;DHT22;47555;51.038;6.280;2023-04-12T05:34:29;7.90;99.90
25154;DHT22;47555;51.038;6.280;2023-04-12T05:36:55;7.90;99.90
25154;DHT22;47555;51.038;6.280;2023-04-12T05:39:23;7.90;99.90
25154;DHT22;47555;51.038;6.280;2023-04-12T05:41:49;7.90;99.90
25154;DHT22;47555;51.038;6.280;2023-04-12T05:44:14;7.90;99.90
25154;DHT22;47555;51.038;6.280;2023-04-12T05:46:40;8.00;99.90
25154;DHT22;47555;51.038;6.280;2023-04-12T05:49:05;8.00;99.90
25154;DHT22;47555;51.038;6.280;2023-04-12T05:51:31;8.00;99.90
25154;DHT22;47555;51.038;6.280;2023-04-12T05:53:57;8.00;99.90
25154;DHT22;47555;51.038;6.280;2023-04-12T05:56:22;8.00;99.90
25154;DHT22;47555;51.038;6.280;2023-04-12T05:58:48;8.00;99.90
25154;DHT22;47555;51.038;6.280;2023-04-12T06:01:14;8.00;99.90
25154;DHT22;47555;51.038;6.280;2023-04-12T06:03:41;8.10;99.90
25154;DHT22;47555;51.038;6.280;2023-04-12T06:06:08;8.00;99.90
25154;DHT22;47555;51.038;6.280;2023-04-12T06:08:34;8.10;99.90
25154;DHT22;47555;51.038;6.280;2023-04-12T06:11:00;8.10;99.90
25154;DHT22;47555;51.038;6.280;2023-04-12T06:13:26;8.10;99.90
25154;DHT22;47555;51.038;6.280;2023-04-12T06:15:51;8.20;99.90
25154;DHT22;47555;51.038;6.280;2023-04-12T06:18:17;8.20;99.90
25154;DHT22;47555;51.038;6.280;2023-04-12T06:20:42;8.20;99.90
25154;DHT22;47555;51.038;6.280;2023-04-12T06:23:08;8.20;99.90
25154;DHT22;47555;51.038;6.280;2023-04-12T06:25:34;8.30;99.90
25154;DHT22;47555;51.038;6.280;2023-04-12T06:27:59;8.30;99.90
25154;DHT22;47555;51.038;6.280;2023-04-12T06:30:25;8.30;99.90
25154;DHT22;47555;51.038;6.280;2023-04-12T06:32:51;8.30;99.90
25154;DHT22;47555;51.038;6.280;2023-04-12T06:35:16;8.30;99.90
25154;DHT22;47555;51.038;6.280;2023-04-12T06:37:42;8.40;99.90
25154;DHT22;47555;51.038;6.280;2023-04-12T06:40:07;8.40;99.90
25154;DHT22;47555;51.038;6.280;2023-04-12T06:42:33;8.40;99.90
25154;DHT22;47555;51.038;6.280;2023-04-12T06:44:58;8.50;99.90
25154;DHT22;47555;51.038;6.280;2023-04-12T06:47:24;8.50;99.90
25154;DHT22;47555;51.038;6.280;2023-04-12T06:49:50;8.60;99.90
25154;DHT22;47555;51.038;6.280;2023-04-12T06:52:22;8.60;99.90
25154;DHT22;47555;51.038;6.280;2023-04-12T06:54:48;8.60;99.90
25154;DHT22;47555;51.038;6.280;2023-04-12T06:57:17;8.70;99.90
25154;DHT22;47555;51.038;6.280;2023-04-12T06:59:42;8.80;99.90
25154;DHT22;47555;51.038;6.280;2023-04-12T07:02:08;8.80;99.90
25154;DHT22;47555;51.038;6.280;2023-04-12T07:04:33;8.90;99.90
25154;DHT22;47555;51.038;6.280;2023-04-12T07:06:59;8.90;99.90
25154;DHT22;47555;51.038;6.280;2023-04-12T07:09:25;8.90;99.90
25154;DHT22;47555;51.038;6.280;2023-04-12T07:11:51;9.00;99.90
25154;DHT22;47555;51.038;6.280;2023-04-12T07:14:16;9.00;99.90
25154;DHT22;47555;51.038;6.280;2023-04-12T07:16:42;9.00;99.90
25154;DHT22;47555;51.038;6.280;2023-04-12T07:19:08;9.00;99.90
25154;DHT22;47555;51.038;6.280;2023-04-12T07:21:33;9.00;99.90
25154;DHT22;47555;51.038;6.280;2023-04-12T07:23:59;9.10;99.90
25154;DHT22;47555;51.038;6.280;2023-04-12T07:26:25;9.00;99.90
25154;DHT22;47555;51.038;6.280;2023-04-12T07:28:51;9.00;99.90
25154;DHT22;47555;51.038;6.280;2023-04-12T07:31:17;9.00;99.90
25154;DHT22;47555;51.038;6.280;2023-04-12T07:33:43;9.10;99.90
25154;DHT22;47555;51.038;6.280;2023-04-12T07:36:09;9.10;99.90
25154;DHT22;47555;51.038;6.280;2023-04-12T07:38:35;9.10;99.90
25154;DHT22;47555;51.038;6.280;2023-04-12T07:41:01;9.10;99.90
25154;DHT22;47555;51.038;6.280;2023-04-12T07:43:26;9.20;99.90
25154;DHT22;47555;51.038;6.280;2023-04-12T07:45:55;9.20;99.90
25154;DHT22;47555;51.038;6.280;2023-04-12T07:48:20;9.20;99.90
25154;DHT22;47555;51.038;6.280;2023-04-12T07:50:46;9.20;99.90
25154;DHT22;47555;51.038;6.280;2023-04-12T07:53:19;9.30;99.90
25154;DHT22;47555;51.038;6.280;2023-04-12T07:55:45;9.30;99.90
25154;DHT22;47555;51.038;6.280;2023-04-12T07:58:11;9.30;99.90
25154;DHT22;47555;51.038;6.280;2023-04-12T08:00:36;9.30;99.90
25154;DHT22;47555;51.038;6.280;2023-04-12T08:03:02;9.30;99.90
25154;DHT22;47555;51.038;6.280;2023-04-12T08:05:27;9.40;99.90
25154;DHT22;47555;51.038;6.280;2023-04-12T08:07:53;9.50;99.90
25154;DHT22;47555;51.038;6.280;2023-04-12T08:10:18;9.50;99.90
25154;DHT22;47555;51.038;6.280;2023-04-12T08:12:44;9.50;99.90
25154;DHT22;47555;51.038;6.280;2023-04-12T08:15:10;9.50;99.90
25154;DHT22;47555;51.038;6.280;2023-04-12T08:17:35;9.60;99.90
25154;DHT22;47555;51.038;6.280;2023-04-12T08:20:01;9.60;99.90
25154;DHT22;47555;51.038;6.280;2023-04-12T08:22:28;9.60;99.90
25154;DHT22;47555;51.038;6.280;2023-04-12T08:24:54;9.60;99.90
25154;DHT22;47555;51.038;6.280;2023-04-12T08:27:20;9.70;99.90
25154;DHT22;47555;51.038;6.280;2023-04-12T08:29:45;9.70;99.90
25154;DHT22;47555;51.038;6.280;2023-04-12T08:32:11;9.70;99.90
25154;DHT22;47555;51.038;6.280;2023-04-12T08:34:37;9.70;99.90
25154;DHT22;47555;51.038;6.280;2023-04-12T08:37:03;9.80;99.90
25154;DHT22;47555;51.038;6.280;2023-04-12T08:39:30;9.70;99.90
25154;DHT22;47555;51.038;6.280;2023-04-12T08:41:57;9.70;99.90
25154;DHT22;47555;51.038;6.280;2023-04-12T08:44:34;9.80;99.90
25154;DHT22;47555;51.038;6.280;2023-04-12T08:47:02;9.80;99.90
25154;DHT22;47555;51.038;6.280;2023-04-12T08:49:29;9.80;99.90
25154;DHT22;47555;51.038;6.280;2023-04-12T08:51:55;9.80;99.90
25154;DHT22;47555;51.038;6.280;2023-04-12T08:54:24;9.90;99.90
25154;DHT22;47555;51.038;6.280;2023-04-12T08:56:50;9.90;99.90
25154;DHT22;47555;51.038;6.280;2023-04-12T08:59:18;9.90;99.90
25154;DHT22;47555;51.038;6.280;2023-04-12T09:01:51;10.00;99.90
25154;DHT22;47555;51.038;6.280;2023-04-12T09:04:17;10.10;99.90
25154;DHT22;47555;51.038;6.280;2023-04-12T09:06:43;10.20;99.90
25154;DHT22;47555;51.038;6.280;2023-04-12T09:09:08;10.30;99.90
25154;DHT22;47555;51.038;6.280;2023-04-12T09:11:34;10.30;99.90
25154;DHT22;47555;51.038;6.280;2023-04-12T09:14:00;10.40;99.90
25154;DHT22;47555;51.038;6.280;2023-04-12T09:16:55;10.40;99.90
25154;DHT22;47555;51.038;6.280;2023-04-12T09:19:31;10.30;99.90
25154;DHT22;47555;51.038;6.280;2023-04-12T09:21:57;10.40;99.90
25154;DHT22;47555;51.038;6.280;2023-04-12T09:24:23;10.40;99.90
25154;DHT22;47555;51.038;6.280;2023-04-12T09:27:00;10.50;99.90
25154;DHT22;47555;51.038;6.280;2023-04-12T09:29:30;10.70;99.90
25154;DHT22;47555;51.038;6.280;2023-04-12T09:32:03;11.00;99.90
25154;DHT22;47555;51.038;6.280;2023-04-12T09:34:31;11.10;99.90
25154;DHT22;47555;51.038;6.280;2023-04-12T09:36:57;11.30;99.90
25154;DHT22;47555;51.038;6.280;2023-04-12T09:39:33;11.50;99.90
25154;DHT22;47555;51.038;6.280;2023-04-12T09:42:09;11.70;99.90
25154;DHT22;47555;51.038;6.280;2023-04-12T09:44:36;11.80;99.90
25154;DHT22;47555;51.038;6.280;2023-04-12T09:47:02;11.80;99.90
25154;DHT22;47555;51.038;6.280;2023-04-12T09:49:36;11.90;99.90
25154;DHT22;47555;51.038;6.280;2023-04-12T09:52:10;11.90;99.90
25154;DHT22;47555;51.038;6.280;2023-04-12T09:54:46;11.90;99.90
25154;DHT22;47555;51.038;6.280;2023-04-12T09:57:16;11.80;99.90
25154;DHT22;47555;51.038;6.280;2023-04-12T09:59:43;11.70;99.90
25154;DHT22;47555;51.038;6.280;2023-04-12T10:02:19;11.50;98.10
25154;DHT22;47555;51.038;6.280;2023-04-12T10:04:47;11.30;98.50
25154;DHT22;47555;51.038;6.280;2023-04-12T10:07:13;11.10;99.90
25154;DHT22;47555;51.038;6.280;2023-04-12T10:09:40;11.00;99.90
25154;DHT22;47555;51.038;6.280;2023-04-12T10:12:07;11.00;99.90
25154;DHT22;47555;51.038;6.280;2023-04-12T10:14:33;11.00;99.90
25154;DHT22;47555;51.038;6.280;2023-04-12T10:17:01;11.00;99.90
25154;DHT22;47555;51.038;6.280;2023-04-12T10:19:28;11.00;99.90
25154;DHT22;47555;51.038;6.280;2023-04-12T10:21:55;11.00;99.90
25154;DHT22;47555;51.038;6.280;2023-04-12T10:24:26;11.00;99.90
25154;DHT22;47555;51.038;6.280;2023-04-12T10:26:54;11.00;99.90
25154;DHT22;47555;51.038;6.280;2023-04-12T10:29:30;11.00;97.80
25154;DHT22;47555;51.038;6.280;2023-04-12T10:32:16;11.10;97.80
25154;DHT22;47555;51.038;6.280;2023-04-12T10:34:42;11.20;97.00
25154;DHT22;47555;51.038;6.280;2023-04-12T10:37:08;11.30;98.80
25154;DHT22;47555;51.038;6.280;2023-04-12T10:39:40;11.40;98.70
25154;DHT22;47555;51.038;6.280;2023-04-12T10:42:25;11.50;95.60
25154;DHT22;47555;51.038;6.280;2023-04-12T10:44:54;11.70;97.20
25154;DHT22;47555;51.038;6.280;2023-04-12T10:50:24;12.10;94.90
25154;DHT22;47555;51.038;6.280;2023-04-12T10:55:41;12.40;88.50
25154;DHT22;47555;51.038;6.280;2023-04-12T10:58:10;12.60;92.00
25154;DHT22;47555;51.038;6.280;2023-04-12T11:01:08;12.70;90.30
25154;DHT22;47555;51.038;6.280;2023-04-12T11:03:34;12.90;86.40
25154;DHT22;47555;51.038;6.280;2023-04-12T11:06:02;13.10;85.90
25154;DHT22;47555;51.038;6.280;2023-04-12T11:08:29;13.10;82.60
25154;DHT22;47555;51.038;6.280;2023-04-12T11:11:02;13.20;81.40
25154;DHT22;47555;51.038;6.280;2023-04-12T11:13:31;13.30;82.20
25154;DHT22;47555;51.038;6.280;2023-04-12T11:16:01;13.50;77.10
25154;DHT22;47555;51.038;6.280;2023-04-12T11:18:27;13.70;74.90
25154;DHT22;47555;51.038;6.280;2023-04-12T11:20:53;13.90;71.90
25154;DHT22;47555;51.038;6.280;2023-04-12T11:23:18;14.00;73.00
25154;DHT22;47555;51.038;6.280;2023-04-12T11:25:49;14.20;70.90
25154;DHT22;47555;51.038;6.280;2023-04-12T11:28:16;14.20;68.30
25154;DHT22;47555;51.038;6.280;2023-04-12T11:30:52;14.30;71.40
25154;DHT22;47555;51.038;6.280;2023-04-12T11:33:35;14.10;66.00
25154;DHT22;47555;51.038;6.280;2023-04-12T11:36:05;14.10;68.60
25154;DHT22;47555;51.038;6.280;2023-04-12T11:38:32;14.00;69.50
25154;DHT22;47555;51.038;6.280;2023-04-12T11:40:58;13.90;65.90
25154;DHT22;47555;51.038;6.280;2023-04-12T11:43:24;13.80;71.40
25154;DHT22;47555;51.038;6.280;2023-04-12T11:45:58;13.70;72.10
25154;DHT22;47555;51.038;6.280;2023-04-12T11:48:25;13.60;74.20
25154;DHT22;47555;51.038;6.280;2023-04-12T11:50:51;13.60;73.30
25154;DHT22;47555;51.038;6.280;2023-04-12T11:53:16;13.40;70.90
25154;DHT22;47555;51.038;6.280;2023-04-12T11:55:47;13.20;71.10
25154;DHT22;47555;51.038;6.280;2023-04-12T11:58:14;13.00;72.90
25154;DHT22;47555;51.038;6.280;2023-04-12T12:00:41;12.90;72.60
25154;DHT22;47555;51.038;6.280;2023-04-12T12:03:08;12.80;73.90
25154;DHT22;47555;51.038;6.280;2023-04-12T12:05:34;12.80;75.20
25154;DHT22;47555;51.038;6.280;2023-04-12T12:08:02;12.80;72.50
25154;DHT22;47555;51.038;6.280;2023-04-12T12:10:35;12.90;75.50
25154;DHT22;47555;51.038;6.280;2023-04-12T12:13:00;13.00;77.10
25154;DHT22;47555;51.038;6.280;2023-04-12T12:15:30;13.10;76.50
25154;DHT22;47555;51.038;6.280;2023-04-12T12:17:56;13.30;76.00
25154;DHT22;47555;51.038;6.280;2023-04-12T12:20:21;13.40;69.60
25154;DHT22;47555;51.038;6.280;2023-04-12T12:22:49;13.50;72.00
25154;DHT22;47555;51.038;6.280;2023-04-12T12:25:16;13.60;65.40
25154;DHT22;47555;51.038;6.280;2023-04-12T12:27:42;13.70;70.60
25154;DHT22;47555;51.038;6.280;2023-04-12T12:30:12;13.80;69.30
25154;DHT22;47555;51.038;6.280;2023-04-12T12:32:41;13.90;64.40
25154;DHT22;47555;51.038;6.280;2023-04-12T12:35:08;14.00;60.00
25154;DHT22;47555;51.038;6.280;2023-04-12T12:37:34;14.00;66.80
25154;DHT22;47555;51.038;6.280;2023-04-12T12:40:11;14.00;64.70
25154;DHT22;47555;51.038;6.280;2023-04-12T12:42:48;13.90;66.00
25154;DHT22;47555;51.038;6.280;2023-04-12T12:45:15;13.80;66.70
25154;DHT22;47555;51.038;6.280;2023-04-12T12:50:10;13.70;64.00
25154;DHT22;47555;51.038;6.280;2023-04-12T12:52:38;13.40;58.60
25154;DHT22;47555;51.038;6.280;2023-04-12T12:55:04;13.30;61.20
25154;DHT22;47555;51.038;6.280;2023-04-12T12:57:30;13.20;61.10
25154;DHT22;47555;51.038;6.280;2023-04-12T12:59:56;13.30;64.90
25154;DHT22;47555;51.038;6.280;2023-04-12T13:02:21;13.30;66.00
25154;DHT22;47555;51.038;6.280;2023-04-12T13:04:47;13.40;64.20
25154;DHT22;47555;51.038;6.280;2023-04-12T13:07:12;13.50;62.00
25154;DHT22;47555;51.038;6.280;2023-04-12T13:09:38;13.50;59.00
25154;DHT22;47555;51.038;6.280;2023-04-12T13:12:03;13.80;63.50
25154;DHT22;47555;51.038;6.280;2023-04-12T13:14:29;14.00;56.50
25154;DHT22;47555;51.038;6.280;2023-04-12T13:16:54;14.00;52.50
25154;DHT22;47555;51.038;6.280;2023-04-12T13:19:20;14.00;56.10
25154;DHT22;47555;51.038;6.280;2023-04-12T13:21:46;13.80;59.70
25154;DHT22;47555;51.038;6.280;2023-04-12T13:24:12;13.40;71.20
25154;DHT22;47555;51.038;6.280;2023-04-12T13:26:37;12.80;76.20
25154;DHT22;47555;51.038;6.280;2023-04-12T13:29:03;12.30;82.80
25154;DHT22;47555;51.038;6.280;2023-04-12T13:31:28;11.80;86.20
25154;DHT22;47555;51.038;6.280;2023-04-12T13:33:54;11.40;88.70
25154;DHT22;47555;51.038;6.280;2023-04-12T13:36:19;11.20;90.70
25154;DHT22;47555;51.038;6.280;2023-04-12T13:38:45;11.00;91.90
25154;DHT22;47555;51.038;6.280;2023-04-12T13:41:11;10.90;94.50
25154;DHT22;47555;51.038;6.280;2023-04-12T13:43:37;10.80;96.30
25154;DHT22;47555;51.038;6.280;2023-04-12T13:46:03;10.80;97.60
25154;DHT22;47555;51.038;6.280;2023-04-12T13:48:28;10.80;98.70
25154;DHT22;47555;51.038;6.280;2023-04-12T13:50:54;10.90;99.90
25154;DHT22;47555;51.038;6.280;2023-04-12T13:53:20;11.00;99.90
25154;DHT22;47555;51.038;6.280;2023-04-12T13:55:45;11.20;99.90
25154;DHT22;47555;51.038;6.280;2023-04-12T13:58:14;11.30;99.90
25154;DHT22;47555;51.038;6.280;2023-04-12T14:00:40;11.80;99.90
25154;DHT22;47555;51.038;6.280;2023-04-12T14:03:06;12.20;98.10
25154;DHT22;47555;51.038;6.280;2023-04-12T14:05:32;12.30;88.10
25154;DHT22;47555;51.038;6.280;2023-04-12T14:07:58;12.40;85.30
25154;DHT22;47555;51.038;6.280;2023-04-12T14:10:23;12.30;82.70
25154;DHT22;47555;51.038;6.280;2023-04-12T14:12:49;12.10;83.60
25154;DHT22;47555;51.038;6.280;2023-04-12T14:15:14;11.80;83.50
25154;DHT22;47555;51.038;6.280;2023-04-12T14:17:40;11.80;90.60
25154;DHT22;47555;51.038;6.280;2023-04-12T14:20:07;11.90;92.90
25154;DHT22;47555;51.038;6.280;2023-04-12T14:22:35;11.90;89.90
25154;DHT22;47555;51.038;6.280;2023-04-12T14:25:01;12.00;91.30
25154;DHT22;47555;51.038;6.280;2023-04-12T14:27:26;12.40;92.00
25154;DHT22;47555;51.038;6.280;2023-04-12T14:29:52;12.70;87.50
25154;DHT22;47555;51.038;6.280;2023-04-12T14:32:17;12.90;80.80
25154;DHT22;47555;51.038;6.280;2023-04-12T14:34:43;13.00;77.00
25154;DHT22;47555;51.038;6.280;2023-04-12T14:37:09;13.00;72.80
25154;DHT22;47555;51.038;6.280;2023-04-12T14:39:35;12.70;70.70
25154;DHT22;47555;51.038;6.280;2023-04-12T14:42:00;12.60;66.60
25154;DHT22;47555;51.038;6.280;2023-04-12T14:44:27;12.40;67.00
25154;DHT22;47555;51.038;6.280;2023-04-12T14:46:52;12.20;66.20
25154;DHT22;47555;51.038;6.280;2023-04-12T14:49:18;11.80;70.70
25154;DHT22;47555;51.038;6.280;2023-04-12T14:51:43;11.60;78.00
25154;DHT22;47555;51.038;6.280;2023-04-12T14:54:10;11.60;84.10
25154;DHT22;47555;51.038;6.280;2023-04-12T14:56:35;11.80;83.10
25154;DHT22;47555;51.038;6.280;2023-04-12T14:59:01;12.00;82.40
25154;DHT22;47555;51.038;6.280;2023-04-12T15:01:26;12.20;81.80
25154;DHT22;47555;51.038;6.280;2023-04-12T15:03:53;12.40;77.30
25154;DHT22;47555;51.038;6.280;2023-04-12T15:06:20;12.50;79.70
25154;DHT22;47555;51.038;6.280;2023-04-12T15:08:48;12.50;78.50
25154;DHT22;47555;51.038;6.280;2023-04-12T15:11:14;12.40;76.20
25154;DHT22;47555;51.038;6.280;2023-04-12T15:13:40;12.50;72.20
25154;DHT22;47555;51.038;6.280;2023-04-12T15:16:07;12.60;66.30
25154;DHT22;47555;51.038;6.280;2023-04-12T15:18:34;12.70;68.10
25154;DHT22;47555;51.038;6.280;2023-04-12T15:21:03;12.80;63.80
25154;DHT22;47555;51.038;6.280;2023-04-12T15:23:29;12.80;63.60
25154;DHT22;47555;51.038;6.280;2023-04-12T15:25:58;12.60;54.60
25154;DHT22;47555;51.038;6.280;2023-04-12T15:28:25;12.40;55.10
25154;DHT22;47555;51.038;6.280;2023-04-12T15:30:52;12.10;59.70
25154;DHT22;47555;51.038;6.280;2023-04-12T15:33:18;11.80;59.60
25154;DHT22;47555;51.038;6.280;2023-04-12T15:35:45;11.60;61.90
25154;DHT22;47555;51.038;6.280;2023-04-12T15:38:10;11.40;66.60
25154;DHT22;47555;51.038;6.280;2023-04-12T15:40:36;11.30;64.00
25154;DHT22;47555;51.038;6.280;2023-04-12T15:43:02;11.10;65.60
25154;DHT22;47555;51.038;6.280;2023-04-12T15:45:28;11.00;66.00
25154;DHT22;47555;51.038;6.280;2023-04-12T15:47:53;10.80;67.70
25154;DHT22;47555;51.038;6.280;2023-04-12T15:50:20;10.70;67.70
25154;DHT22;47555;51.038;6.280;2023-04-12T15:52:46;10.60;65.40
25154;DHT22;47555;51.038;6.280;2023-04-12T15:55:13;10.50;64.50
25154;DHT22;47555;51.038;6.280;2023-04-12T15:57:41;10.40;67.30